createdAt,value
2022-12-08T00:00:46.069Z,0.20
2022-12-08T00:03:30.682Z,0.17
2022-12-08T00:06:41.692Z,0.16
2022-12-08T00:09:27.199Z,0.16
2022-12-08T00:12:11.956Z,0.17
2022-12-08T00:14:55.098Z,0.16
2022-12-08T00:17:37.952Z,0.17
2022-12-08T00:20:22.217Z,0.17
2022-12-08T00:23:05.100Z,0.18
2022-12-08T00:25:47.994Z,0.19
2022-12-08T00:28:30.872Z,0.21
2022-12-08T00:31:14.050Z,0.21
2022-12-08T00:33:56.991Z,0.22
2022-12-08T00:36:41.343Z,0.21
2022-12-08T00:39:24.311Z,0.19
2022-12-08T00:42:16.196Z,0.18
2022-12-08T00:44:59.084Z,0.16
2022-12-08T00:47:41.983Z,0.16
2022-12-08T00:50:24.837Z,0.14
2022-12-08T00:53:09.041Z,0.16
2022-12-08T00:55:51.953Z,0.15
2022-12-08T00:58:35.831Z,0.17
2022-12-08T01:01:19.001Z,0.19
2022-12-08T01:04:04.465Z,0.19
2022-12-08T01:06:48.464Z,0.21
2022-12-08T01:09:32.739Z,0.22
2022-12-08T01:12:15.666Z,0.22
2022-12-08T01:15:02.240Z,0.22
2022-12-08T01:17:45.688Z,0.22
2022-12-08T01:20:28.751Z,0.23
2022-12-08T01:23:11.596Z,0.22
2022-12-08T01:25:55.827Z,0.21
2022-12-08T01:28:39.543Z,0.21
2022-12-08T01:31:23.880Z,0.21
2022-12-08T01:34:06.730Z,0.20
2022-12-08T01:36:49.612Z,0.22
2022-12-08T01:39:32.480Z,0.20
2022-12-08T01:42:23.332Z,0.16
2022-12-08T01:45:14.984Z,0.13
2022-12-08T01:48:01.334Z,0.12
2022-12-08T01:50:44.657Z,0.13
2022-12-08T01:53:32.748Z,0.10
2022-12-08T01:56:20.450Z,0.08
2022-12-08T01:59:04.918Z,0.08
2022-12-08T02:01:47.641Z,0.08
2022-12-08T02:04:30.526Z,0.09
2022-12-08T02:07:15.718Z,0.05
2022-12-08T02:09:58.931Z,0.07
2022-12-08T02:12:41.876Z,0.05
2022-12-08T02:15:33.747Z,0.03
2022-12-08T02:18:38.824Z,-0.04
2022-12-08T02:21:27.361Z,-0.06
2022-12-08T02:24:20.318Z,-0.20
2022-12-08T02:27:36.894Z,-0.31
2022-12-08T02:30:27.353Z,-0.36
2022-12-08T02:33:57.961Z,-0.44
2022-12-08T02:36:53.004Z,-0.54
2022-12-08T02:39:38.849Z,-0.59
2022-12-08T02:42:28.576Z,-0.56
2022-12-08T02:45:15.742Z,-0.53
2022-12-08T02:47:59.747Z,-0.46
2022-12-08T02:50:43.452Z,-0.42
2022-12-08T02:53:31.601Z,-0.38
2022-12-08T02:56:30.750Z,-0.35
2022-12-08T02:59:37.136Z,-0.30
2022-12-08T03:02:36.897Z,-0.25
2022-12-08T03:05:32.892Z,-0.32
2022-12-08T03:08:21.210Z,-0.38
2022-12-08T03:11:11.713Z,-0.40
2022-12-08T03:13:59.260Z,-0.43
2022-12-08T03:16:46.403Z,-0.55
2022-12-08T03:19:33.681Z,-0.66
2022-12-08T03:22:20.983Z,-0.75
2022-12-08T03:25:04.028Z,-0.82
2022-12-08T03:27:48.393Z,-0.90
2022-12-08T03:30:34.582Z,-0.99
2022-12-08T03:33:23.653Z,-1.09
2022-12-08T03:36:10.658Z,-1.17
2022-12-08T03:38:55.085Z,-1.25
2022-12-08T03:41:37.948Z,-1.27
2022-12-08T03:44:22.130Z,-1.30
2022-12-08T03:47:05.107Z,-1.33
2022-12-08T03:49:47.968Z,-1.32
2022-12-08T03:52:30.893Z,-1.32
2022-12-08T03:55:13.746Z,-1.31
2022-12-08T03:57:56.717Z,-1.30
2022-12-08T04:00:40.931Z,-1.30
2022-12-08T04:03:23.856Z,-1.34
2022-12-08T04:06:07.715Z,-1.37
2022-12-08T04:08:51.629Z,-1.43
2022-12-08T04:11:34.491Z,-1.43
2022-12-08T04:14:17.607Z,-1.43
2022-12-08T04:17:01.830Z,-1.41
2022-12-08T04:19:44.689Z,-1.39
2022-12-08T04:22:27.538Z,-1.37
2022-12-08T04:25:10.893Z,-1.34
2022-12-08T04:27:54.018Z,-1.29
2022-12-08T04:30:37.019Z,-1.24
2022-12-08T04:33:21.238Z,-1.26
2022-12-08T04:36:04.984Z,-1.23
2022-12-08T04:38:47.850Z,-1.16
2022-12-08T04:41:30.693Z,-1.14
2022-12-08T04:44:13.846Z,-1.14
2022-12-08T04:46:56.743Z,-1.14
2022-12-08T04:49:40.972Z,-1.13
2022-12-08T04:52:24.244Z,-1.12
2022-12-08T04:55:07.772Z,-1.06
2022-12-08T04:57:50.660Z,-1.04
2022-12-08T05:00:33.512Z,-1.03
2022-12-08T05:03:17.066Z,-1.05
2022-12-08T05:06:02.346Z,-1.08
2022-12-08T05:08:45.357Z,-1.13
2022-12-08T05:11:28.208Z,-1.16
2022-12-08T05:14:13.277Z,-1.14
2022-12-08T05:16:56.096Z,-1.15
2022-12-08T05:19:38.948Z,-1.19
2022-12-08T05:22:23.152Z,-1.21
2022-12-08T05:25:06.525Z,-1.24
2022-12-08T05:27:49.403Z,-1.24
2022-12-08T05:30:32.258Z,-1.24
2022-12-08T05:33:15.174Z,-1.25
2022-12-08T05:35:58.086Z,-1.25
2022-12-08T05:38:42.369Z,-1.24
2022-12-08T05:41:25.516Z,-1.24
2022-12-08T05:44:08.546Z,-1.24
2022-12-08T05:46:51.529Z,-1.25
2022-12-08T05:49:34.596Z,-1.23
2022-12-08T05:52:17.933Z,-1.24
2022-12-08T05:55:02.175Z,-1.25
2022-12-08T05:57:45.032Z,-1.26
2022-12-08T06:00:27.890Z,-1.28
2022-12-08T06:03:12.630Z,-1.30
2022-12-08T06:05:55.528Z,-1.29
2022-12-08T06:08:38.406Z,-1.31
2022-12-08T06:11:24.233Z,-1.31
2022-12-08T06:14:11.612Z,-1.31
2022-12-08T06:16:54.572Z,-1.30
2022-12-08T06:19:37.684Z,-1.27
2022-12-08T06:22:20.601Z,-1.27
2022-12-08T06:25:07.174Z,-1.29
2022-12-08T06:27:52.726Z,-1.32
2022-12-08T06:30:35.584Z,-1.34
2022-12-08T06:33:18.449Z,-1.36
2022-12-08T06:36:01.327Z,-1.31
2022-12-08T06:38:44.750Z,-1.26
2022-12-08T06:41:27.589Z,-1.27
2022-12-08T06:44:11.835Z,-1.27
2022-12-08T06:46:54.714Z,-1.26
2022-12-08T06:49:37.589Z,-1.20
2022-12-08T06:52:20.447Z,-1.14
2022-12-08T06:55:03.421Z,-1.07
2022-12-08T06:57:46.303Z,-1.03
2022-12-08T07:00:30.550Z,-1.04
2022-12-08T07:03:14.703Z,-1.05
2022-12-08T07:06:03.563Z,-1.10
2022-12-08T07:08:47.271Z,-1.10
2022-12-08T07:11:30.143Z,-1.10
2022-12-08T07:14:13.682Z,-1.10
2022-12-08T07:16:57.931Z,-1.07
2022-12-08T07:19:40.840Z,-1.06
2022-12-08T07:22:23.710Z,-1.13
2022-12-08T07:25:07.400Z,-1.13
2022-12-08T07:27:51.386Z,-1.11
2022-12-08T07:30:34.317Z,-1.10
2022-12-08T07:33:18.540Z,-1.07
2022-12-08T07:36:03.407Z,-1.04
2022-12-08T07:38:46.273Z,-1.00
2022-12-08T07:41:29.189Z,-0.98
2022-12-08T07:44:12.422Z,-0.98
2022-12-08T07:46:55.296Z,-0.94
2022-12-08T07:49:40.787Z,-0.93
2022-12-08T07:52:23.663Z,-0.91
2022-12-08T07:55:07.521Z,-0.88
2022-12-08T07:57:51.318Z,-0.84
2022-12-08T08:00:34.396Z,-0.82
2022-12-08T08:03:17.342Z,-0.75
2022-12-08T08:06:05.913Z,-0.67
2022-12-08T08:08:48.783Z,-0.59
2022-12-08T08:11:31.687Z,-0.59
2022-12-08T08:14:14.489Z,-0.60
2022-12-08T08:16:57.482Z,-0.58
2022-12-08T08:19:40.419Z,-0.58
2022-12-08T08:22:25.926Z,-0.51
2022-12-08T08:25:09.697Z,-0.48
2022-12-08T08:27:52.687Z,-0.44
2022-12-08T08:30:35.554Z,-0.43
2022-12-08T08:33:18.414Z,-0.39
2022-12-08T08:36:01.333Z,-0.36
2022-12-08T08:38:45.551Z,-0.35
2022-12-08T08:41:28.411Z,-0.32
2022-12-08T08:44:11.286Z,-0.24
2022-12-08T08:46:54.221Z,-0.23
2022-12-08T08:49:37.192Z,-0.19
2022-12-08T08:52:20.091Z,-0.15
2022-12-08T08:55:04.862Z,-0.15
2022-12-08T08:57:47.730Z,-0.10
2022-12-08T09:00:30.571Z,-0.04
2022-12-08T09:03:13.909Z,0.05
2022-12-08T09:05:57.522Z,0.10
2022-12-08T09:08:40.502Z,0.14
2022-12-08T09:11:25.136Z,0.15
2022-12-08T09:14:08.078Z,0.18
2022-12-08T09:16:51.028Z,0.21
2022-12-08T09:19:34.071Z,0.21
2022-12-08T09:22:17.043Z,0.22
2022-12-08T09:24:59.914Z,0.24
2022-12-08T09:27:44.204Z,0.28
2022-12-08T09:30:27.053Z,0.31
2022-12-08T09:33:09.927Z,0.35
2022-12-08T09:35:52.801Z,0.40
2022-12-08T09:38:35.737Z,0.47
2022-12-08T09:41:24.957Z,0.51
2022-12-08T09:44:24.355Z,0.58
2022-12-08T09:47:16.732Z,0.65
2022-12-08T09:50:07.457Z,0.70
2022-12-08T09:52:59.119Z,0.75
2022-12-08T09:55:46.871Z,0.71
2022-12-08T09:58:46.105Z,0.73
2022-12-08T10:01:33.975Z,0.76
2022-12-08T10:04:23.854Z,0.79
2022-12-08T10:07:15.303Z,0.79
2022-12-08T10:10:04.560Z,0.77
2022-12-08T10:12:52.996Z,0.82
2022-12-08T10:15:47.740Z,0.84
2022-12-08T10:18:35.116Z,0.81
2022-12-08T10:21:22.181Z,0.81
2022-12-08T10:24:12.859Z,0.83
2022-12-08T10:26:57.867Z,0.81
2022-12-08T10:29:41.184Z,0.80
2022-12-08T10:32:25.420Z,0.80
2022-12-08T10:35:12.087Z,0.82
2022-12-08T10:37:59.643Z,0.83
2022-12-08T10:40:45.889Z,0.86
2022-12-08T10:43:29.204Z,0.91
2022-12-08T10:46:14.464Z,0.93
2022-12-08T10:49:12.397Z,0.97
2022-12-08T10:51:56.619Z,1.02
2022-12-08T10:54:43.951Z,1.09
2022-12-08T10:57:26.799Z,1.09
2022-12-08T11:00:14.712Z,1.13
2022-12-08T11:03:00.779Z,1.17
2022-12-08T11:05:43.740Z,1.20
2022-12-08T11:08:29.617Z,1.21
2022-12-08T11:11:12.915Z,1.20
2022-12-08T11:13:55.809Z,1.20
2022-12-08T11:16:43.338Z,1.20
2022-12-08T11:19:27.875Z,1.25
2022-12-08T11:22:23.104Z,1.26
2022-12-08T11:25:13.406Z,1.28
2022-12-08T11:27:59.583Z,1.31
2022-12-08T11:30:48.440Z,1.34
2022-12-08T11:33:31.600Z,1.38
2022-12-08T11:36:16.711Z,1.41
2022-12-08T11:39:02.262Z,1.44
2022-12-08T11:41:47.619Z,1.44
2022-12-08T11:44:38.231Z,1.45
2022-12-08T11:47:25.512Z,1.48
2022-12-08T11:50:21.128Z,1.54
2022-12-08T11:53:09.997Z,1.58
2022-12-08T11:55:58.263Z,1.60
2022-12-08T11:58:46.075Z,1.63
2022-12-08T12:01:29.155Z,1.66
2022-12-08T12:04:21.516Z,1.70
2022-12-08T12:07:27.195Z,1.72
2022-12-08T12:10:39.673Z,1.75
2022-12-08T12:13:46.901Z,1.77
2022-12-08T12:16:56.536Z,1.79
2022-12-08T12:19:41.225Z,1.78
2022-12-08T12:22:25.144Z,1.78
2022-12-08T12:25:19.235Z,1.78
2022-12-08T12:28:07.160Z,1.78
2022-12-08T12:30:58.972Z,1.78
2022-12-08T12:33:44.245Z,1.76
2022-12-08T12:36:27.410Z,1.75
2022-12-08T12:39:14.538Z,1.75
2022-12-08T12:41:59.630Z,1.72
2022-12-08T12:44:43.513Z,1.72
2022-12-08T12:47:55.606Z,1.69
2022-12-08T12:50:43.711Z,1.64
2022-12-08T12:53:49.679Z,1.64
2022-12-08T12:56:50.546Z,1.64
2022-12-08T12:59:51.568Z,1.64
2022-12-08T13:02:40.520Z,1.63
2022-12-08T13:05:27.246Z,1.61
2022-12-08T13:08:23.977Z,1.58
2022-12-08T13:11:09.786Z,1.57
2022-12-08T13:13:57.839Z,1.56
2022-12-08T13:16:41.068Z,1.54
2022-12-08T13:19:24.053Z,1.52
2022-12-08T13:22:40.256Z,1.51
2022-12-08T13:25:51.126Z,1.48
2022-12-08T13:28:33.976Z,1.46
2022-12-08T13:31:37.187Z,1.43
2022-12-08T13:34:35.613Z,1.39
2022-12-08T13:37:26.302Z,1.35
2022-12-08T13:40:15.368Z,1.33
2022-12-08T13:43:10.715Z,1.31
2022-12-08T13:56:24.861Z,1.25
2022-12-08T13:58:19.467Z,1.26
2022-12-08T14:01:07.632Z,1.28
2022-12-08T14:04:28.472Z,1.31
2022-12-08T14:06:59.302Z,1.32
2022-12-08T14:09:43.337Z,1.29
2022-12-08T14:12:28.119Z,1.27
2022-12-08T14:15:16.674Z,1.26
2022-12-08T14:17:59.885Z,1.24
2022-12-08T14:21:12.555Z,1.24
2022-12-08T14:23:45.919Z,1.21
2022-12-08T14:26:34.427Z,1.19
2022-12-08T14:29:33.892Z,1.18
2022-12-08T14:32:23.413Z,1.17
2022-12-08T14:35:19.714Z,1.16
2022-12-08T14:38:05.091Z,1.17
2022-12-08T14:40:49.124Z,1.11
2022-12-08T14:43:32.614Z,0.99
2022-12-08T14:46:22.934Z,0.82
2022-12-08T14:49:28.509Z,0.63
2022-12-08T14:52:12.810Z,0.47
2022-12-08T14:54:56.585Z,0.32
2022-12-08T14:57:39.625Z,0.24
2022-12-08T15:00:23.817Z,0.17
2022-12-08T15:03:25.246Z,0.10
2022-12-08T15:06:28.879Z,-0.01
2022-12-08T15:09:19.252Z,-0.08
2022-12-08T15:12:03.600Z,-0.17
2022-12-08T15:14:57.283Z,-0.23
2022-12-08T15:17:44.287Z,-0.27
2022-12-08T15:20:35.135Z,-0.33
2022-12-08T15:23:27.376Z,-0.36
2022-12-08T15:26:11.280Z,-0.39
2022-12-08T15:28:54.592Z,-0.40
2022-12-08T15:31:37.571Z,-0.43
2022-12-08T15:34:21.113Z,-0.48
2022-12-08T15:37:05.262Z,-0.55
2022-12-08T15:39:49.951Z,-0.58
2022-12-08T15:42:32.821Z,-0.60
2022-12-08T15:45:17.596Z,-0.64
2022-12-08T15:48:00.529Z,-0.66
2022-12-08T15:50:43.369Z,-0.69
2022-12-08T15:53:26.431Z,-0.67
2022-12-08T15:56:27.742Z,-0.66
2022-12-08T15:59:15.957Z,-0.64
2022-12-08T16:01:58.925Z,-0.63
2022-12-08T16:07:45.431Z,-0.58
2022-12-08T16:10:45.487Z,-0.66
2022-12-08T16:13:57.405Z,-0.69
2022-12-08T16:16:43.497Z,-0.66
2022-12-08T16:19:26.649Z,-0.66
2022-12-08T16:22:51.723Z,-0.68
2022-12-08T16:25:21.024Z,-0.70
2022-12-08T16:28:29.298Z,-0.71
2022-12-08T16:31:14.398Z,-0.70
2022-12-08T16:33:58.735Z,-0.70
2022-12-08T16:36:41.708Z,-0.73
2022-12-08T16:39:24.603Z,-0.72
2022-12-08T16:42:24.920Z,-0.71
2022-12-08T16:45:11.247Z,-0.66
2022-12-08T16:47:57.401Z,-0.66
2022-12-08T16:50:45.764Z,-0.65
2022-12-08T16:53:28.627Z,-0.65
2022-12-08T16:56:17.345Z,-0.64
2022-12-08T16:59:00.310Z,-0.61
2022-12-08T17:01:43.229Z,-0.60
2022-12-08T17:04:32.001Z,-0.59
2022-12-08T17:07:15.201Z,-0.60
2022-12-08T17:09:59.264Z,-0.60
2022-12-08T17:12:42.289Z,-0.62
2022-12-08T17:15:26.614Z,-0.64
2022-12-08T17:18:09.489Z,-0.68
2022-12-08T17:20:53.736Z,-0.69
2022-12-08T17:23:36.803Z,-0.73
2022-12-08T17:26:19.663Z,-0.75
2022-12-08T17:29:03.342Z,-0.79
2022-12-08T17:31:46.261Z,-0.84
2022-12-08T17:34:29.498Z,-0.85
2022-12-08T17:37:13.713Z,-0.83
2022-12-08T17:39:56.589Z,-0.79
2022-12-08T17:42:39.595Z,-0.80
2022-12-08T17:45:22.485Z,-0.83
2022-12-08T17:48:05.566Z,-0.85
2022-12-08T17:50:48.731Z,-0.92
2022-12-08T17:53:37.205Z,-0.98
2022-12-08T17:56:22.361Z,-0.98
2022-12-08T17:59:05.289Z,-0.99
2022-12-08T18:01:48.224Z,-1.04
2022-12-08T18:04:31.588Z,-1.05
2022-12-08T18:07:14.424Z,-1.07
2022-12-08T18:09:58.717Z,-1.13
2022-12-08T18:12:41.630Z,-1.13
2022-12-08T18:15:24.492Z,-1.12
2022-12-08T18:18:07.460Z,-1.13
2022-12-08T18:20:50.457Z,-1.18
2022-12-08T18:23:33.342Z,-1.18
2022-12-08T18:26:17.749Z,-1.16
2022-12-08T18:29:01.289Z,-1.18
2022-12-08T18:31:44.214Z,-1.15
2022-12-08T18:34:27.129Z,-1.11
2022-12-08T18:37:09.945Z,-1.11
2022-12-08T18:39:52.922Z,-1.11
2022-12-08T18:42:37.762Z,-1.12
2022-12-08T18:45:22.644Z,-1.14
2022-12-08T18:48:06.721Z,-1.17
2022-12-08T18:50:49.550Z,-1.20
2022-12-08T18:53:32.420Z,-1.23
2022-12-08T18:56:26.081Z,-1.28
2022-12-08T18:59:13.510Z,-1.32
2022-12-08T19:01:57.166Z,-1.31
2022-12-08T19:04:42.160Z,-1.33
2022-12-08T19:07:25.009Z,-1.35
2022-12-08T19:10:09.228Z,-1.36
2022-12-08T19:12:52.377Z,-1.36
2022-12-08T19:15:36.711Z,-1.38
2022-12-08T19:18:19.588Z,-1.41
2022-12-08T19:21:02.494Z,-1.39
2022-12-08T19:23:45.361Z,-1.38
2022-12-08T19:26:29.600Z,-1.46
2022-12-08T19:29:13.030Z,-1.47
2022-12-08T19:31:57.454Z,-1.46
2022-12-08T19:34:40.125Z,-1.47
2022-12-08T19:37:23.068Z,-1.45
2022-12-08T19:40:24.794Z,-1.45
2022-12-08T19:43:48.434Z,-1.44
2022-12-08T19:46:34.742Z,-1.44
2022-12-08T19:49:23.000Z,-1.43
2022-12-08T19:52:06.529Z,-1.43
2022-12-08T19:54:49.417Z,-1.45
2022-12-08T19:57:32.272Z,-1.47
2022-12-08T20:00:15.893Z,-1.45
2022-12-08T20:02:59.798Z,-1.43
2022-12-08T20:05:45.078Z,-1.44
2022-12-08T20:08:28.621Z,-1.47
2022-12-08T20:11:11.649Z,-1.48
2022-12-08T20:13:54.607Z,-1.48
2022-12-08T20:16:37.789Z,-1.47
2022-12-08T20:19:20.690Z,-1.46
2022-12-08T20:22:04.962Z,-1.47
2022-12-08T20:24:57.208Z,-1.48
2022-12-08T20:27:42.730Z,-1.54
2022-12-08T20:30:25.666Z,-1.53
2022-12-08T20:33:08.636Z,-1.55
2022-12-08T20:36:01.108Z,-1.58
2022-12-08T20:38:45.355Z,-1.62
2022-12-08T20:41:28.234Z,-1.62
2022-12-08T20:44:11.493Z,-1.63
2022-12-08T20:46:54.458Z,-1.63
2022-12-08T20:49:37.559Z,-1.62
2022-12-08T20:52:20.437Z,-1.61
2022-12-08T20:55:04.991Z,-1.60
2022-12-08T20:57:48.298Z,-1.55
2022-12-08T21:00:31.314Z,-1.54
2022-12-08T21:03:15.373Z,-1.52
2022-12-08T21:05:58.546Z,-1.51
2022-12-08T21:08:41.838Z,-1.50
2022-12-08T21:11:26.212Z,-1.50
2022-12-08T21:14:09.136Z,-1.50
2022-12-08T21:16:54.488Z,-1.50
2022-12-08T21:19:37.748Z,-1.50
2022-12-08T21:22:21.127Z,-1.49
2022-12-08T21:25:04.159Z,-1.51
2022-12-08T21:27:48.675Z,-1.49
2022-12-08T21:30:31.607Z,-1.49
2022-12-08T21:33:14.577Z,-1.50
2022-12-08T21:36:03.191Z,-1.49
2022-12-08T21:38:47.970Z,-1.48
2022-12-08T21:41:48.675Z,-1.48
2022-12-08T21:44:35.305Z,-1.46
2022-12-08T21:47:18.331Z,-1.45
2022-12-08T21:50:01.316Z,-1.47
2022-12-08T21:52:46.561Z,-1.50
2022-12-08T21:55:29.627Z,-1.52
2022-12-08T21:58:12.588Z,-1.50
2022-12-08T22:00:56.911Z,-1.50
2022-12-08T22:03:41.152Z,-1.52
2022-12-08T22:06:24.237Z,-1.53
2022-12-08T22:09:07.284Z,-1.56
2022-12-08T22:11:50.522Z,-1.53
2022-12-08T22:14:33.580Z,-1.48
2022-12-08T22:17:18.767Z,-1.47
2022-12-08T22:20:01.906Z,-1.49
2022-12-08T22:22:45.995Z,-1.48
2022-12-08T22:25:29.144Z,-1.47
2022-12-08T22:28:13.729Z,-1.47
2022-12-08T22:30:56.751Z,-1.48
2022-12-08T22:33:42.612Z,-1.49
2022-12-08T22:36:28.009Z,-1.49
2022-12-08T22:39:12.682Z,-1.54
2022-12-08T22:41:55.761Z,-1.62
2022-12-08T22:44:38.753Z,-1.66
2022-12-08T22:47:21.761Z,-1.69
2022-12-08T22:50:07.969Z,-1.69
2022-12-08T22:52:51.144Z,-1.68
2022-12-08T22:55:34.385Z,-1.67
2022-12-08T22:58:17.453Z,-1.67
2022-12-08T23:01:00.351Z,-1.69
2022-12-08T23:03:43.326Z,-1.70
2022-12-08T23:06:31.940Z,-1.75
2022-12-08T23:09:15.189Z,-1.79
2022-12-08T23:11:58.244Z,-1.82
2022-12-08T23:14:41.108Z,-1.84
2022-12-08T23:17:24.090Z,-1.89
2022-12-08T23:20:08.666Z,-1.88
2022-12-08T23:22:53.079Z,-1.89
2022-12-08T23:25:36.073Z,-1.92
2022-12-08T23:28:18.956Z,-1.96
2022-12-08T23:31:01.841Z,-2.00
2022-12-08T23:33:44.834Z,-2.00
2022-12-08T23:36:27.737Z,-1.99
2022-12-08T23:39:12.831Z,-2.03
2022-12-08T23:41:55.979Z,-2.04
2022-12-08T23:44:39.087Z,-2.08
2022-12-08T23:47:22.323Z,-2.10
2022-12-08T23:50:07.146Z,-2.12
2022-12-08T23:52:50.536Z,-2.12
2022-12-08T23:55:34.810Z,-2.18
2022-12-08T23:58:17.809Z,-2.22
